sensor_id;sensor_type;location;lat;lon;timestamp;pressure;altitude;pressure_sealevel;temperature;humidity
72336;BME280;65062;48.446;8.834;2023-05-29T00:00:39;97516.56;;;8.82;90.15
72336;BME280;65062;48.446;8.834;2023-05-29T00:03:39;97515.56;;;8.60;91.42
72336;BME280;65062;48.446;8.834;2023-05-29T00:06:40;97504.78;;;8.63;92.13
72336;BME280;65062;48.446;8.834;2023-05-29T00:09:41;97509.91;;;8.79;90.09
72336;BME280;65062;48.446;8.834;2023-05-29T00:12:41;97516.34;;;8.61;90.19
72336;BME280;65062;48.446;8.834;2023-05-29T00:15:42;97515.19;;;8.40;91.59
72336;BME280;65062;48.446;8.834;2023-05-29T00:18:42;97507.72;;;8.29;91.81
72336;BME280;65062;48.446;8.834;2023-05-29T00:21:45;97511.47;;;8.35;93.31
72336;BME280;65062;48.446;8.834;2023-05-29T00:24:47;97506.97;;;8.51;93.91
72336;BME280;65062;48.446;8.834;2023-05-29T00:27:48;97503.09;;;8.70;93.42
72336;BME280;65062;48.446;8.834;2023-05-29T00:30:48;97499.91;;;8.60;91.40
72336;BME280;65062;48.446;8.834;2023-05-29T00:33:49;97500.19;;;8.65;90.84
72336;BME280;65062;48.446;8.834;2023-05-29T00:36:49;97503.03;;;8.56;90.95
72336;BME280;65062;48.446;8.834;2023-05-29T00:39:49;97500.56;;;8.31;90.93
72336;BME280;65062;48.446;8.834;2023-05-29T00:42:50;97496.69;;;8.27;92.56
72336;BME280;65062;48.446;8.834;2023-05-29T00:45:50;97496.94;;;8.40;92.13
72336;BME280;65062;48.446;8.834;2023-05-29T00:48:51;97497.91;;;8.39;90.60
72336;BME280;65062;48.446;8.834;2023-05-29T00:51:54;97500.94;;;8.12;91.18
72336;BME280;65062;48.446;8.834;2023-05-29T00:54:56;97505.22;;;8.05;92.69
72336;BME280;65062;48.446;8.834;2023-05-29T00:57:57;97509.75;;;8.11;93.35
72336;BME280;65062;48.446;8.834;2023-05-29T01:00:57;97504.41;;;8.05;92.97
72336;BME280;65062;48.446;8.834;2023-05-29T01:03:59;97496.69;;;7.81;93.45
72336;BME280;65062;48.446;8.834;2023-05-29T01:07:02;97498.66;;;7.71;92.88
72336;BME280;65062;48.446;8.834;2023-05-29T01:10:02;97501.41;;;7.77;94.31
72336;BME280;65062;48.446;8.834;2023-05-29T01:13:07;97498.53;;;7.64;93.55
72336;BME280;65062;48.446;8.834;2023-05-29T01:16:13;97506.34;;;7.64;95.40
72336;BME280;65062;48.446;8.834;2023-05-29T01:19:31;97506.25;;;7.88;95.20
72336;BME280;65062;48.446;8.834;2023-05-29T01:22:58;97515.94;;;8.10;96.76
72336;BME280;65062;48.446;8.834;2023-05-29T01:29:37;97515.75;;;8.12;91.71
72336;BME280;65062;48.446;8.834;2023-05-29T01:32:39;97511.59;;;8.03;92.30
72336;BME280;65062;48.446;8.834;2023-05-29T01:35:40;97512.44;;;7.95;92.85
72336;BME280;65062;48.446;8.834;2023-05-29T01:38:40;97506.63;;;7.77;92.90
72336;BME280;65062;48.446;8.834;2023-05-29T01:41:41;97516.38;;;7.75;94.12
72336;BME280;65062;48.446;8.834;2023-05-29T01:44:44;97512.00;;;7.76;95.25
72336;BME280;65062;48.446;8.834;2023-05-29T01:47:45;97506.41;;;7.87;96.02
72336;BME280;65062;48.446;8.834;2023-05-29T01:50:47;97512.44;;;7.87;95.67
72336;BME280;65062;48.446;8.834;2023-05-29T01:53:47;97513.72;;;7.99;95.46
72336;BME280;65062;48.446;8.834;2023-05-29T01:56:49;97511.59;;;8.03;93.96
72336;BME280;65062;48.446;8.834;2023-05-29T01:59:50;97517.06;;;8.16;94.43
72336;BME280;65062;48.446;8.834;2023-05-29T02:02:51;97519.34;;;8.11;93.09
72336;BME280;65062;48.446;8.834;2023-05-29T02:05:51;97513.88;;;7.90;89.99
72336;BME280;65062;48.446;8.834;2023-05-29T02:08:51;97520.16;;;7.73;91.63
72336;BME280;65062;48.446;8.834;2023-05-29T02:11:52;97519.34;;;7.56;91.71
72336;BME280;65062;48.446;8.834;2023-05-29T02:14:52;97524.56;;;7.56;94.15
72336;BME280;65062;48.446;8.834;2023-05-29T02:17:52;97507.13;;;7.65;94.25
72336;BME280;65062;48.446;8.834;2023-05-29T02:20:53;97514.97;;;7.57;94.24
72336;BME280;65062;48.446;8.834;2023-05-29T02:23:53;97522.78;;;7.57;94.11
72336;BME280;65062;48.446;8.834;2023-05-29T02:26:53;97518.69;;;7.62;95.15
72336;BME280;65062;48.446;8.834;2023-05-29T02:29:54;97519.03;;;7.59;95.77
72336;BME280;65062;48.446;8.834;2023-05-29T02:32:55;97520.81;;;7.59;95.60
72336;BME280;65062;48.446;8.834;2023-05-29T02:35:55;97512.19;;;7.58;95.06
72336;BME280;65062;48.446;8.834;2023-05-29T02:38:55;97512.38;;;7.57;95.77
72336;BME280;65062;48.446;8.834;2023-05-29T02:41:56;97509.06;;;7.71;94.62
72336;BME280;65062;48.446;8.834;2023-05-29T02:44:56;97525.34;;;7.73;93.38
72336;BME280;65062;48.446;8.834;2023-05-29T02:47:56;97515.13;;;7.55;92.77
72336;BME280;65062;48.446;8.834;2023-05-29T02:50:57;97515.63;;;7.43;93.16
72336;BME280;65062;48.446;8.834;2023-05-29T02:53:57;97507.69;;;7.28;93.89
72336;BME280;65062;48.446;8.834;2023-05-29T02:56:58;97512.72;;;7.38;92.83
72336;BME280;65062;48.446;8.834;2023-05-29T02:59:58;97526.09;;;7.19;91.60
72336;BME280;65062;48.446;8.834;2023-05-29T03:02:59;97518.28;;;7.11;92.42
72336;BME280;65062;48.446;8.834;2023-05-29T03:06:00;97532.72;;;6.97;92.42
72336;BME280;65062;48.446;8.834;2023-05-29T03:09:04;97530.59;;;6.69;92.33
72336;BME280;65062;48.446;8.834;2023-05-29T03:12:05;97533.53;;;6.66;93.67
72336;BME280;65062;48.446;8.834;2023-05-29T03:15:06;97534.66;;;6.71;95.25
72336;BME280;65062;48.446;8.834;2023-05-29T03:18:06;97532.06;;;6.71;95.76
72336;BME280;65062;48.446;8.834;2023-05-29T03:21:07;97528.69;;;6.87;95.80
72336;BME280;65062;48.446;8.834;2023-05-29T03:24:07;97528.84;;;6.93;95.98
72336;BME280;65062;48.446;8.834;2023-05-29T03:27:08;97531.28;;;7.11;94.51
72336;BME280;65062;48.446;8.834;2023-05-29T03:30:08;97528.50;;;6.96;92.61
72336;BME280;65062;48.446;8.834;2023-05-29T03:33:09;97526.88;;;6.87;92.94
72336;BME280;65062;48.446;8.834;2023-05-29T03:36:10;97518.91;;;6.65;93.47
72336;BME280;65062;48.446;8.834;2023-05-29T03:39:11;97519.41;;;6.76;93.85
72336;BME280;65062;48.446;8.834;2023-05-29T03:42:13;97526.03;;;6.71;93.10
72336;BME280;65062;48.446;8.834;2023-05-29T03:45:13;97525.38;;;6.53;93.19
72336;BME280;65062;48.446;8.834;2023-05-29T03:48:13;97528.25;;;6.41;94.36
72336;BME280;65062;48.446;8.834;2023-05-29T03:51:15;97527.28;;;6.34;95.18
72336;BME280;65062;48.446;8.834;2023-05-29T03:54:15;97529.25;;;6.40;95.97
72336;BME280;65062;48.446;8.834;2023-05-29T03:57:16;97531.09;;;6.72;95.65
72336;BME280;65062;48.446;8.834;2023-05-29T04:00:16;97530.41;;;6.54;94.88
72336;BME280;65062;48.446;8.834;2023-05-29T04:03:18;97536.59;;;6.61;95.25
72336;BME280;65062;48.446;8.834;2023-05-29T04:06:18;97532.22;;;6.70;96.10
72336;BME280;65062;48.446;8.834;2023-05-29T04:09:19;97541.34;;;6.82;96.49
72336;BME280;65062;48.446;8.834;2023-05-29T04:12:19;97544.59;;;6.92;96.75
72336;BME280;65062;48.446;8.834;2023-05-29T04:15:20;97539.09;;;6.95;96.62
72336;BME280;65062;48.446;8.834;2023-05-29T04:18:22;97542.97;;;6.99;96.21
72336;BME280;65062;48.446;8.834;2023-05-29T04:21:22;97552.91;;;7.03;96.25
72336;BME280;65062;48.446;8.834;2023-05-29T04:24:22;97557.31;;;7.11;95.98
72336;BME280;65062;48.446;8.834;2023-05-29T04:27:24;97561.06;;;7.24;95.95
72336;BME280;65062;48.446;8.834;2023-05-29T04:30:24;97558.59;;;7.39;95.19
72336;BME280;65062;48.446;8.834;2023-05-29T04:33:25;97562.53;;;7.35;94.70
72336;BME280;65062;48.446;8.834;2023-05-29T04:36:27;97567.88;;;7.33;94.69
72336;BME280;65062;48.446;8.834;2023-05-29T04:39:28;97572.75;;;7.44;94.02
72336;BME280;65062;48.446;8.834;2023-05-29T04:42:29;97569.50;;;7.58;93.20
72336;BME280;65062;48.446;8.834;2023-05-29T04:45:34;97574.03;;;7.56;92.66
72336;BME280;65062;48.446;8.834;2023-05-29T04:48:37;97569.00;;;7.63;93.13
72336;BME280;65062;48.446;8.834;2023-05-29T04:51:40;97576.50;;;7.66;93.42
72336;BME280;65062;48.446;8.834;2023-05-29T04:54:41;97581.66;;;7.82;91.81
72336;BME280;65062;48.446;8.834;2023-05-29T04:57:41;97583.78;;;7.86;91.60
72336;BME280;65062;48.446;8.834;2023-05-29T05:00:41;97586.38;;;7.86;92.22
72336;BME280;65062;48.446;8.834;2023-05-29T05:03:43;97576.47;;;7.82;92.21
72336;BME280;65062;48.446;8.834;2023-05-29T05:06:44;97585.06;;;7.82;93.34
72336;BME280;65062;48.446;8.834;2023-05-29T05:09:44;97583.91;;;8.01;92.66
72336;BME280;65062;48.446;8.834;2023-05-29T05:12:45;97587.13;;;8.11;91.61
72336;BME280;65062;48.446;8.834;2023-05-29T05:15:45;97590.06;;;8.16;91.18
72336;BME280;65062;48.446;8.834;2023-05-29T05:18:45;97579.91;;;8.21;91.63
72336;BME280;65062;48.446;8.834;2023-05-29T05:21:45;97594.09;;;8.34;91.54
72336;BME280;65062;48.446;8.834;2023-05-29T05:24:46;97600.25;;;8.41;90.72
72336;BME280;65062;48.446;8.834;2023-05-29T05:27:47;97599.44;;;8.41;91.49
72336;BME280;65062;48.446;8.834;2023-05-29T05:30:47;97597.44;;;8.51;90.31
72336;BME280;65062;48.446;8.834;2023-05-29T05:33:47;97606.69;;;8.62;90.13
72336;BME280;65062;48.446;8.834;2023-05-29T05:36:48;97612.50;;;8.72;90.30
72336;BME280;65062;48.446;8.834;2023-05-29T05:39:50;97606.13;;;8.74;90.10
72336;BME280;65062;48.446;8.834;2023-05-29T05:42:50;97610.34;;;8.83;91.44
72336;BME280;65062;48.446;8.834;2023-05-29T05:45:51;97602.09;;;8.94;90.81
72336;BME280;65062;48.446;8.834;2023-05-29T05:48:51;97603.63;;;9.11;91.11
72336;BME280;65062;48.446;8.834;2023-05-29T05:51:52;97597.03;;;9.23;90.71
72336;BME280;65062;48.446;8.834;2023-05-29T05:54:52;97601.22;;;9.32;90.21
72336;BME280;65062;48.446;8.834;2023-05-29T05:57:52;97605.66;;;9.46;90.23
72336;BME280;65062;48.446;8.834;2023-05-29T06:00:53;97604.16;;;9.66;89.70
72336;BME280;65062;48.446;8.834;2023-05-29T06:03:53;97607.47;;;9.83;88.72
72336;BME280;65062;48.446;8.834;2023-05-29T06:06:53;97607.75;;;10.02;88.61
72336;BME280;65062;48.446;8.834;2023-05-29T06:09:54;97603.28;;;10.11;87.78
72336;BME280;65062;48.446;8.834;2023-05-29T06:12:54;97609.88;;;10.21;87.38
72336;BME280;65062;48.446;8.834;2023-05-29T06:15:55;97605.38;;;10.30;87.05
72336;BME280;65062;48.446;8.834;2023-05-29T06:18:56;97607.38;;;10.42;86.88
72336;BME280;65062;48.446;8.834;2023-05-29T06:21:56;97599.13;;;10.60;85.55
72336;BME280;65062;48.446;8.834;2023-05-29T06:24:56;97601.34;;;10.78;85.27
72336;BME280;65062;48.446;8.834;2023-05-29T06:27:57;97604.63;;;11.01;85.22
72336;BME280;65062;48.446;8.834;2023-05-29T06:30:57;97600.09;;;11.09;83.64
72336;BME280;65062;48.446;8.834;2023-05-29T06:33:57;97610.28;;;11.19;84.54
72336;BME280;65062;48.446;8.834;2023-05-29T06:36:58;97605.97;;;11.32;83.05
72336;BME280;65062;48.446;8.834;2023-05-29T06:39:58;97608.38;;;11.55;82.95
72336;BME280;65062;48.446;8.834;2023-05-29T06:43:00;97609.59;;;11.73;82.78
72336;BME280;65062;48.446;8.834;2023-05-29T06:46:00;97603.06;;;11.90;83.25
72336;BME280;65062;48.446;8.834;2023-05-29T06:49:01;97603.31;;;11.95;81.65
72336;BME280;65062;48.446;8.834;2023-05-29T06:52:01;97603.22;;;12.10;81.65
72336;BME280;65062;48.446;8.834;2023-05-29T06:55:02;97604.13;;;12.30;80.52
72336;BME280;65062;48.446;8.834;2023-05-29T06:58:02;97605.66;;;12.45;81.01
72336;BME280;65062;48.446;8.834;2023-05-29T07:04:59;97605.00;;;12.84;79.61
72336;BME280;65062;48.446;8.834;2023-05-29T07:08:00;97596.16;;;12.98;79.71
72336;BME280;65062;48.446;8.834;2023-05-29T07:11:01;97604.53;;;13.15;79.12
72336;BME280;65062;48.446;8.834;2023-05-29T07:14:02;97606.41;;;13.34;78.86
72336;BME280;65062;48.446;8.834;2023-05-29T07:17:02;97610.66;;;13.61;78.39
72336;BME280;65062;48.446;8.834;2023-05-29T07:20:03;97610.06;;;13.91;78.00
72336;BME280;65062;48.446;8.834;2023-05-29T07:23:07;97615.94;;;14.00;76.72
72336;BME280;65062;48.446;8.834;2023-05-29T07:26:07;97603.97;;;14.30;73.65
72336;BME280;65062;48.446;8.834;2023-05-29T07:29:08;97611.84;;;14.43;74.96
72336;BME280;65062;48.446;8.834;2023-05-29T07:32:09;97618.19;;;14.86;73.42
72336;BME280;65062;48.446;8.834;2023-05-29T07:35:10;97617.75;;;15.33;69.78
72336;BME280;65062;48.446;8.834;2023-05-29T07:38:10;97614.97;;;15.59;66.19
72336;BME280;65062;48.446;8.834;2023-05-29T07:41:11;97616.53;;;15.91;66.95
72336;BME280;65062;48.446;8.834;2023-05-29T07:44:11;97617.97;;;16.36;66.23
72336;BME280;65062;48.446;8.834;2023-05-29T07:47:11;97621.78;;;16.47;66.78
72336;BME280;65062;48.446;8.834;2023-05-29T07:50:13;97628.69;;;16.66;63.47
72336;BME280;65062;48.446;8.834;2023-05-29T07:53:14;97619.56;;;16.98;60.25
72336;BME280;65062;48.446;8.834;2023-05-29T07:56:14;97625.84;;;16.97;60.68
72336;BME280;65062;48.446;8.834;2023-05-29T07:59:16;97626.59;;;17.04;59.87
72336;BME280;65062;48.446;8.834;2023-05-29T08:02:17;97621.09;;;17.35;60.28
72336;BME280;65062;48.446;8.834;2023-05-29T08:05:17;97616.31;;;17.85;61.48
72336;BME280;65062;48.446;8.834;2023-05-29T08:08:18;97618.59;;;17.81;56.92
72336;BME280;65062;48.446;8.834;2023-05-29T08:11:19;97608.84;;;17.93;56.03
72336;BME280;65062;48.446;8.834;2023-05-29T08:14:19;97611.72;;;18.15;54.22
72336;BME280;65062;48.446;8.834;2023-05-29T08:17:19;97608.38;;;18.19;55.92
72336;BME280;65062;48.446;8.834;2023-05-29T08:20:20;97609.19;;;18.20;56.44
72336;BME280;65062;48.446;8.834;2023-05-29T08:23:21;97614.25;;;18.33;56.99
72336;BME280;65062;48.446;8.834;2023-05-29T08:26:21;97615.19;;;18.73;56.35
72336;BME280;65062;48.446;8.834;2023-05-29T08:29:22;97605.25;;;18.80;53.96
72336;BME280;65062;48.446;8.834;2023-05-29T08:32:22;97603.97;;;18.83;55.76
72336;BME280;65062;48.446;8.834;2023-05-29T08:35:23;97606.97;;;18.86;54.93
72336;BME280;65062;48.446;8.834;2023-05-29T08:38:23;97605.19;;;18.92;54.06
72336;BME280;65062;48.446;8.834;2023-05-29T08:41:38;97607.06;;;19.31;53.89
72336;BME280;65062;48.446;8.834;2023-05-29T08:44:46;97614.53;;;19.62;50.21
72336;BME280;65062;48.446;8.834;2023-05-29T08:47:52;97604.72;;;19.62;52.22
72336;BME280;65062;48.446;8.834;2023-05-29T08:50:54;97611.09;;;19.78;51.95
72336;BME280;65062;48.446;8.834;2023-05-29T08:53:55;97605.22;;;19.76;50.42
72336;BME280;65062;48.446;8.834;2023-05-29T08:56:56;97605.88;;;19.99;52.05
72336;BME280;65062;48.446;8.834;2023-05-29T08:59:58;97603.53;;;20.03;48.55
72336;BME280;65062;48.446;8.834;2023-05-29T09:02:59;97605.78;;;20.11;51.87
72336;BME280;65062;48.446;8.834;2023-05-29T09:06:00;97608.44;;;20.44;48.86
72336;BME280;65062;48.446;8.834;2023-05-29T09:09:00;97602.47;;;20.37;49.44
72336;BME280;65062;48.446;8.834;2023-05-29T09:12:01;97600.47;;;20.65;50.31
72336;BME280;65062;48.446;8.834;2023-05-29T09:15:15;97610.47;;;20.75;47.19
72336;BME280;65062;48.446;8.834;2023-05-29T09:18:17;97607.44;;;20.88;47.24
72336;BME280;65062;48.446;8.834;2023-05-29T09:21:27;97598.78;;;20.98;46.53
72336;BME280;65062;48.446;8.834;2023-05-29T09:24:32;97602.97;;;21.15;49.13
72336;BME280;65062;48.446;8.834;2023-05-29T09:27:32;97604.75;;;21.31;45.11
72336;BME280;65062;48.446;8.834;2023-05-29T09:31:03;97597.31;;;21.33;45.61
72336;BME280;65062;48.446;8.834;2023-05-29T09:34:13;97600.81;;;21.60;46.23
72336;BME280;65062;48.446;8.834;2023-05-29T09:37:14;97595.88;;;21.74;43.58
72336;BME280;65062;48.446;8.834;2023-05-29T09:40:14;97618.22;;;21.73;44.14
72336;BME280;65062;48.446;8.834;2023-05-29T09:43:16;97603.72;;;21.85;44.33
72336;BME280;65062;48.446;8.834;2023-05-29T09:46:17;97605.53;;;22.11;45.55
72336;BME280;65062;48.446;8.834;2023-05-29T09:49:22;97601.38;;;22.30;42.18
72336;BME280;65062;48.446;8.834;2023-05-29T09:52:23;97608.13;;;22.43;45.17
72336;BME280;65062;48.446;8.834;2023-05-29T09:55:25;97597.94;;;22.35;39.93
72336;BME280;65062;48.446;8.834;2023-05-29T09:58:26;97600.75;;;22.50;39.34
72336;BME280;65062;48.446;8.834;2023-05-29T10:01:27;97600.00;;;22.59;41.41
72336;BME280;65062;48.446;8.834;2023-05-29T10:04:29;97590.91;;;22.60;40.05
72336;BME280;65062;48.446;8.834;2023-05-29T10:07:31;97596.63;;;22.79;37.46
72336;BME280;65062;48.446;8.834;2023-05-29T10:10:36;97596.09;;;22.82;40.44
72336;BME280;65062;48.446;8.834;2023-05-29T10:13:40;97594.25;;;22.88;36.02
72336;BME280;65062;48.446;8.834;2023-05-29T10:16:42;97599.38;;;22.94;41.78
72336;BME280;65062;48.446;8.834;2023-05-29T10:19:44;97595.91;;;23.04;37.62
72336;BME280;65062;48.446;8.834;2023-05-29T10:22:49;97601.78;;;22.96;37.31
72336;BME280;65062;48.446;8.834;2023-05-29T10:25:52;97589.56;;;23.15;41.37
72336;BME280;65062;48.446;8.834;2023-05-29T10:35:22;97589.13;;;23.58;37.22
72336;BME280;65062;48.446;8.834;2023-05-29T10:38:25;97603.34;;;23.83;35.56
72336;BME280;65062;48.446;8.834;2023-05-29T10:47:34;97595.56;;;23.82;35.03
72336;BME280;65062;48.446;8.834;2023-05-29T10:50:41;97600.94;;;23.87;36.47
72336;BME280;65062;48.446;8.834;2023-05-29T10:53:41;97598.00;;;24.03;36.66
72336;BME280;65062;48.446;8.834;2023-05-29T10:56:42;97596.38;;;24.22;40.82
72336;BME280;65062;48.446;8.834;2023-05-29T10:59:45;97599.06;;;24.22;35.17
72336;BME280;65062;48.446;8.834;2023-05-29T11:02:45;97589.13;;;24.53;34.22
72336;BME280;65062;48.446;8.834;2023-05-29T11:06:02;97599.56;;;24.44;33.25
72336;BME280;65062;48.446;8.834;2023-05-29T11:09:05;97589.44;;;24.36;35.12
72336;BME280;65062;48.446;8.834;2023-05-29T11:12:15;97595.28;;;24.48;35.97
72336;BME280;65062;48.446;8.834;2023-05-29T11:15:25;97570.94;;;24.50;34.64
72336;BME280;65062;48.446;8.834;2023-05-29T11:18:27;97594.44;;;24.58;34.30
72336;BME280;65062;48.446;8.834;2023-05-29T11:24:34;97583.81;;;25.17;33.78
72336;BME280;65062;48.446;8.834;2023-05-29T11:27:37;97573.59;;;25.24;35.26
72336;BME280;65062;48.446;8.834;2023-05-29T11:30:47;97563.72;;;25.19;35.22
72336;BME280;65062;48.446;8.834;2023-05-29T11:33:50;97576.00;;;25.25;32.94
72336;BME280;65062;48.446;8.834;2023-05-29T11:36:51;97580.50;;;25.78;30.91
72336;BME280;65062;48.446;8.834;2023-05-29T11:39:51;97563.63;;;25.78;29.98
72336;BME280;65062;48.446;8.834;2023-05-29T11:42:52;97565.44;;;26.44;28.70
72336;BME280;65062;48.446;8.834;2023-05-29T11:45:52;97568.81;;;27.63;28.06
72336;BME280;65062;48.446;8.834;2023-05-29T11:48:53;97572.06;;;29.24;25.95
72336;BME280;65062;48.446;8.834;2023-05-29T11:51:53;97569.44;;;30.03;26.95
72336;BME280;65062;48.446;8.834;2023-05-29T11:54:53;97568.81;;;30.06;23.54
72336;BME280;65062;48.446;8.834;2023-05-29T11:58:00;97562.53;;;30.42;23.25
72336;BME280;65062;48.446;8.834;2023-05-29T12:01:01;97560.31;;;29.91;24.82
72336;BME280;65062;48.446;8.834;2023-05-29T12:04:01;97569.59;;;30.60;24.76
72336;BME280;65062;48.446;8.834;2023-05-29T12:07:17;97568.63;;;31.85;22.20
72336;BME280;65062;48.446;8.834;2023-05-29T12:10:19;97564.63;;;33.29;20.29
72336;BME280;65062;48.446;8.834;2023-05-29T12:13:21;97572.50;;;32.93;18.87
72336;BME280;65062;48.446;8.834;2023-05-29T12:16:24;97570.44;;;32.53;19.23
72336;BME280;65062;48.446;8.834;2023-05-29T12:19:26;97568.78;;;33.56;18.61
72336;BME280;65062;48.446;8.834;2023-05-29T12:22:34;97572.47;;;34.58;16.44
72336;BME280;65062;48.446;8.834;2023-05-29T12:25:37;97568.00;;;35.61;16.59
72336;BME280;65062;48.446;8.834;2023-05-29T12:28:43;97558.44;;;35.16;16.97
72336;BME280;65062;48.446;8.834;2023-05-29T12:31:44;97559.69;;;36.84;13.92
72336;BME280;65062;48.446;8.834;2023-05-29T12:34:49;97564.16;;;37.77;14.14
72336;BME280;65062;48.446;8.834;2023-05-29T12:40:54;97560.53;;;34.06;16.70
72336;BME280;65062;48.446;8.834;2023-05-29T12:44:02;97559.50;;;33.07;18.97
72336;BME280;65062;48.446;8.834;2023-05-29T12:47:03;97557.91;;;33.76;16.79
72336;BME280;65062;48.446;8.834;2023-05-29T12:50:24;97569.50;;;33.15;18.69
72336;BME280;65062;48.446;8.834;2023-05-29T12:53:28;97558.59;;;31.43;18.64
72336;BME280;65062;48.446;8.834;2023-05-29T12:56:29;97566.72;;;31.60;17.64
72336;BME280;65062;48.446;8.834;2023-05-29T12:59:29;97566.06;;;31.71;17.39
72336;BME280;65062;48.446;8.834;2023-05-29T13:02:30;97556.81;;;33.07;16.86
72336;BME280;65062;48.446;8.834;2023-05-29T13:05:30;97565.19;;;33.43;18.34
72336;BME280;65062;48.446;8.834;2023-05-29T13:08:31;97557.63;;;34.11;17.98
72336;BME280;65062;48.446;8.834;2023-05-29T13:11:31;97557.75;;;34.59;17.01
72336;BME280;65062;48.446;8.834;2023-05-29T13:14:32;97562.44;;;35.58;16.78
72336;BME280;65062;48.446;8.834;2023-05-29T13:17:32;97578.69;;;37.27;15.43
72336;BME280;65062;48.446;8.834;2023-05-29T13:20:33;97558.88;;;37.49;14.36
72336;BME280;65062;48.446;8.834;2023-05-29T13:23:33;97561.00;;;35.60;15.06
72336;BME280;65062;48.446;8.834;2023-05-29T13:26:34;97574.19;;;35.34;16.04
72336;BME280;65062;48.446;8.834;2023-05-29T13:29:34;97559.66;;;35.30;16.55
72336;BME280;65062;48.446;8.834;2023-05-29T13:32:35;97569.00;;;36.98;15.17
72336;BME280;65062;48.446;8.834;2023-05-29T13:35:35;97558.06;;;38.44;15.21
72336;BME280;65062;48.446;8.834;2023-05-29T13:38:36;97561.06;;;37.09;15.71
72336;BME280;65062;48.446;8.834;2023-05-29T13:41:36;97559.03;;;36.28;15.06
72336;BME280;65062;48.446;8.834;2023-05-29T13:44:37;97554.78;;;34.40;17.00
72336;BME280;65062;48.446;8.834;2023-05-29T13:47:38;97557.53;;;33.45;15.96
72336;BME280;65062;48.446;8.834;2023-05-29T13:50:38;97562.69;;;33.30;16.38
72336;BME280;65062;48.446;8.834;2023-05-29T13:53:38;97551.88;;;35.96;14.78
72336;BME280;65062;48.446;8.834;2023-05-29T13:56:39;97553.44;;;34.82;14.88
72336;BME280;65062;48.446;8.834;2023-05-29T13:59:39;97550.78;;;33.51;18.27
72336;BME280;65062;48.446;8.834;2023-05-29T14:02:40;97559.53;;;32.61;17.15
72336;BME280;65062;48.446;8.834;2023-05-29T14:05:40;97545.63;;;32.34;16.91
72336;BME280;65062;48.446;8.834;2023-05-29T14:08:41;97543.69;;;33.59;17.73
72336;BME280;65062;48.446;8.834;2023-05-29T14:11:41;97538.06;;;33.43;15.79
72336;BME280;65062;48.446;8.834;2023-05-29T14:14:42;97539.75;;;32.69;15.72
72336;BME280;65062;48.446;8.834;2023-05-29T14:17:42;97540.31;;;32.83;14.96
72336;BME280;65062;48.446;8.834;2023-05-29T14:20:43;97544.41;;;32.05;16.59
72336;BME280;65062;48.446;8.834;2023-05-29T14:23:47;97543.53;;;32.31;16.41
72336;BME280;65062;48.446;8.834;2023-05-29T14:26:48;97550.63;;;31.55;18.11
72336;BME280;65062;48.446;8.834;2023-05-29T14:29:49;97540.75;;;31.42;16.95
72336;BME280;65062;48.446;8.834;2023-05-29T14:32:49;97543.38;;;32.44;15.96
72336;BME280;65062;48.446;8.834;2023-05-29T14:35:51;97539.13;;;33.01;12.99
72336;BME280;65062;48.446;8.834;2023-05-29T14:38:51;97544.69;;;33.54;12.67
72336;BME280;65062;48.446;8.834;2023-05-29T14:41:52;97542.19;;;32.54;15.58
72336;BME280;65062;48.446;8.834;2023-05-29T14:44:52;97542.63;;;32.09;16.35
72336;BME280;65062;48.446;8.834;2023-05-29T14:47:53;97543.94;;;31.69;17.53
72336;BME280;65062;48.446;8.834;2023-05-29T14:50:53;97555.31;;;31.15;15.27
72336;BME280;65062;48.446;8.834;2023-05-29T14:53:54;97542.75;;;31.11;18.03
72336;BME280;65062;48.446;8.834;2023-05-29T14:56:55;97539.25;;;30.63;19.15
72336;BME280;65062;48.446;8.834;2023-05-29T14:59:57;97527.63;;;30.54;18.36
72336;BME280;65062;48.446;8.834;2023-05-29T15:02:58;97526.78;;;30.45;16.89
72336;BME280;65062;48.446;8.834;2023-05-29T15:05:59;97538.16;;;32.68;15.66
72336;BME280;65062;48.446;8.834;2023-05-29T15:08:59;97526.09;;;33.15;14.05
72336;BME280;65062;48.446;8.834;2023-05-29T15:12:00;97521.34;;;33.53;14.53
72336;BME280;65062;48.446;8.834;2023-05-29T15:15:02;97531.13;;;32.67;15.41
72336;BME280;65062;48.446;8.834;2023-05-29T15:18:03;97529.31;;;32.88;14.28
72336;BME280;65062;48.446;8.834;2023-05-29T15:21:03;97531.44;;;32.37;17.25
72336;BME280;65062;48.446;8.834;2023-05-29T15:24:04;97530.34;;;32.67;15.28
72336;BME280;65062;48.446;8.834;2023-05-29T15:27:05;97528.53;;;32.42;15.91
72336;BME280;65062;48.446;8.834;2023-05-29T15:33:10;97526.75;;;32.83;15.37
72336;BME280;65062;48.446;8.834;2023-05-29T15:36:11;97518.19;;;32.44;16.00
72336;BME280;65062;48.446;8.834;2023-05-29T15:39:12;97520.22;;;32.47;15.84
72336;BME280;65062;48.446;8.834;2023-05-29T15:42:12;97507.50;;;33.05;16.64
72336;BME280;65062;48.446;8.834;2023-05-29T15:45:14;97506.84;;;31.36;18.25
72336;BME280;65062;48.446;8.834;2023-05-29T15:48:15;97507.75;;;30.97;18.11
72336;BME280;65062;48.446;8.834;2023-05-29T15:51:15;97510.72;;;30.79;18.89
72336;BME280;65062;48.446;8.834;2023-05-29T15:54:16;97506.41;;;30.30;18.17
72336;BME280;65062;48.446;8.834;2023-05-29T15:57:16;97507.38;;;30.34;18.67
72336;BME280;65062;48.446;8.834;2023-05-29T16:00:17;97511.88;;;29.94;19.42
72336;BME280;65062;48.446;8.834;2023-05-29T16:03:17;97502.19;;;29.49;21.93
72336;BME280;65062;48.446;8.834;2023-05-29T16:06:18;97502.31;;;30.41;19.45
72336;BME280;65062;48.446;8.834;2023-05-29T16:09:18;97502.56;;;30.00;19.90
72336;BME280;65062;48.446;8.834;2023-05-29T16:12:19;97501.47;;;29.35;18.61
72336;BME280;65062;48.446;8.834;2023-05-29T16:15:20;97498.63;;;29.40;20.39
72336;BME280;65062;48.446;8.834;2023-05-29T16:18:21;97488.47;;;28.88;19.89
72336;BME280;65062;48.446;8.834;2023-05-29T16:21:21;97499.38;;;29.32;19.69
72336;BME280;65062;48.446;8.834;2023-05-29T16:24:22;97505.66;;;28.79;19.60
72336;BME280;65062;48.446;8.834;2023-05-29T16:27:22;97497.75;;;28.41;19.02
72336;BME280;65062;48.446;8.834;2023-05-29T16:30:23;97494.69;;;28.48;21.33
72336;BME280;65062;48.446;8.834;2023-05-29T16:33:23;97504.63;;;28.07;19.85
72336;BME280;65062;48.446;8.834;2023-05-29T16:36:23;97505.31;;;28.12;21.69